Weather reports worldwide

Advertisment
Fichtelberg, Germany (10578): temperature & dewpoint: 07.07.2020 06:00:00 - 13.07.2020 06:00:00 (CEST)Fichtelberg, Germany (10578): temperature 5cm & temperature -5cm: 07.07.2020 06:00:00 - 13.07.2020 06:00:00 (CEST)Fichtelberg, Germany (10578): temperature -20cm & temperature -100cm: 07.07.2020 06:00:00 - 13.07.2020 06:00:00 (CEST)Fichtelberg, Germany (10578): wind speed & gusts: 07.07.2020 06:00:00 - 13.07.2020 06:00:00 (CEST)Fichtelberg, Germany (10578): wind direction: 07.07.2020 06:00:00 - 13.07.2020 06:00:00 (CEST)Fichtelberg, Germany (10578): visibility: 07.07.2020 06:00:00 - 13.07.2020 06:00:00 (CEST)Fichtelberg, Germany (10578): sunshine duration: 07.07.2020 06:00:00 - 13.07.2020 06:00:00 (CEST)
Date & Time tt [°C] td [°C] tt 5cm [°C] tt -5cm [°C] tt -20cm [°C] tt -100cm [°C] ff [km/h] ff [kn] fx [km/h] fx [kn] dd vv [km] sd [min]
13.07.2020 06:00:00 - - - - - - - - - - - - -
13.07.2020 05:00:00 6,9 2,5 3,1 8,1 12,5 11,1 11 6 16 9 ESE 75 0
13.07.2020 04:00:00 7,2 2,5 4,1 8,5 12,8 11,1 13 7 19 10 ESE 75 0
13.07.2020 03:00:00 7,3 2,4 4,3 8,9 13,0 11,1 14 8 19 11 ESE 75 0
13.07.2020 02:00:00 7,1 2,4 3,1 9,5 13,2 11,1 16 8 18 10 E 75 0
13.07.2020 01:00:00 7,4 2,4 3,1 10,2 13,5 11,1 15 8 17 9 E 75 0
13.07.2020 00:00:00 8,6 2,6 6,3 10,9 13,6 11,1 14 8 18 10 NNE 71 0
12.07.2020 23:00:00 8,8 2,8 6,7 11,7 13,8 11,1 16 8 22 12 NNE 69 0
12.07.2020 22:00:00 8,7 3,2 6,7 12,8 13,8 11,1 17 9 20 11 N 75 12
12.07.2020 21:00:00 9,7 3,4 8,3 14,2 13,7 11,1 15 8 26 14 N 75 60
12.07.2020 20:00:00 11,7 4,1 12,0 15,8 13,6 11,1 14 8 24 13 N 59 46
12.07.2020 19:00:00 11,7 4,6 13,8 16,0 13,4 11,1 12 6 23 12 N 64 8
12.07.2020 18:00:00 11,6 4,0 12,8 16,9 13,1 11,1 15 8 29 16 N 70 31
12.07.2020 17:00:00 13,0 4,8 19,2 16,2 12,9 11,1 16 9 31 17 NW 60 29
12.07.2020 16:00:00 11,6 4,1 13,6 15,8 12,6 11,1 19 10 27 14 N 67 6
12.07.2020 15:00:00 11,5 5,1 15,7 15,8 12,3 11,1 10 5 24 13 NNE 64 9
12.07.2020 14:00:00 11,6 5,1 16,7 15,3 12,0 11,1 13 7 26 14 N 60 9
12.07.2020 13:00:00 12,0 5,9 16,8 15,1 11,8 11,1 14 7 29 16 NW 55 33
12.07.2020 12:00:00 10,9 5,3 15,5 13,7 11,6 11,1 16 9 33 18 NNW 64 37
12.07.2020 11:00:00 9,0 4,5 9,5 12,0 11,5 11,2 14 8 21 11 NW 69 13
12.07.2020 10:00:00 9,0 4,0 9,7 11,4 11,5 11,2 8 5 16 9 NW 62 23
12.07.2020 09:00:00 9,6 4,5 12,0 10,3 11,6 11,2 10 5 14 8 NW 62 60
12.07.2020 08:00:00 8,9 4,6 9,6 8,4 11,8 11,2 7 4 13 7 NE 67 60
12.07.2020 07:00:00 7,4 4,1 5,0 7,6 12,0 11,2 5 3 21 11 NE 75 60
12.07.2020 06:00:00 5,6 3,6 4,5 7,7 12,2 11,2 16 9 20 11 N 69 17
12.07.2020 05:00:00 5,2 3,1 3,6 8,0 12,4 11,2 18 10 22 12 N 59 0
12.07.2020 04:00:00 5,6 3,0 3,7 8,3 12,7 11,2 18 10 22 12 NNW 72 0
12.07.2020 03:00:00 6,2 2,8 4,6 8,7 12,9 11,2 17 9 23 12 N 75 0
12.07.2020 02:00:00 6,4 2,4 4,9 9,1 13,2 11,2 20 11 25 14 NNW 71 0
12.07.2020 01:00:00 6,8 2,4 5,6 9,6 13,4 11,2 25 14 27 15 NNW 75 0
12.07.2020 00:00:00 6,7 3,1 5,5 10,3 13,6 11,2 25 14 27 15 N 75 0
11.07.2020 23:00:00 7,1 3,2 6,0 11,0 13,7 11,2 25 14 27 15 N 75 0
11.07.2020 22:00:00 7,3 3,1 6,3 12,1 13,8 11,2 25 13 29 15 N 70 7
11.07.2020 21:00:00 8,4 3,1 7,2 13,5 13,7 11,2 18 10 29 16 N 75 60
11.07.2020 20:00:00 10,2 2,9 9,6 15,3 13,5 11,2 21 11 31 17 NNW 75 57
11.07.2020 19:00:00 11,0 2,1 13,0 15,8 13,3 11,2 21 12 29 16 NNW 75 45
11.07.2020 18:00:00 10,3 3,2 11,3 16,4 13,0 11,2 24 13 35 19 NNW 73 51
11.07.2020 17:00:00 11,1 4,3 14,4 16,0 12,8 11,2 23 13 39 21 NNW 73 52
11.07.2020 16:00:00 10,3 5,0 12,5 15,2 12,6 11,2 19 10 36 20 NW 74 24
11.07.2020 15:00:00 9,8 5,0 11,3 14,4 12,5 11,2 23 12 35 19 NNW 69 30
11.07.2020 14:00:00 8,7 5,2 10,4 13,3 12,4 11,2 18 10 29 15 NW 52 17
11.07.2020 13:00:00 7,1 6,1 8,5 11,8 12,4 11,2 18 10 30 16 NNW 26 2
11.07.2020 12:00:00 7,6 7,4 10,7 11,2 12,5 11,2 10 6 18 10 NW 0,5 1
11.07.2020 11:00:00 6,7 6,4 7,7 10,8 12,6 11,2 11 6 22 12 N 0,1 0
11.07.2020 10:00:00 6,3 6,0 7,1 10,4 12,7 11,2 14 7 26 14 NNW 0,1 0
11.07.2020 09:00:00 5,9 5,6 6,4 10,3 12,8 11,2 17 9 26 14 N 0,1 0
11.07.2020 08:00:00 6,4 6,1 6,7 10,3 13,0 11,2 22 12 29 16 NNW 0,1 0
11.07.2020 07:00:00 6,7 6,4 7,1 10,4 13,1 11,2 20 11 24 13 NNW 0,1 0
11.07.2020 06:00:00 6,7 6,4 7,0 10,5 13,3 11,2 14 8 24 13 NNW 0,1 0
11.07.2020 05:00:00 6,7 6,4 6,8 10,6 13,5 11,2 15 8 24 13 NNW 0,2 0
11.07.2020 04:00:00 6,5 6,0 6,5 10,9 13,7 11,2 21 11 26 14 NNW 6 0
11.07.2020 03:00:00 6,6 6,0 6,7 11,3 13,8 11,2 22 12 30 16 NNW 8 0
11.07.2020 02:00:00 7,0 6,2 7,1 11,8 14,0 11,2 23 12 31 17 NNW 21 0
11.07.2020 01:00:00 7,9 7,6 8,1 12,3 14,2 11,2 26 14 38 21 NNW 0,1 0
11.07.2020 00:00:00 8,5 8,0 8,7 12,7 14,3 11,2 29 15 41 22 NW 0,3 0
10.07.2020 23:00:00 8,9 7,5 9,1 13,3 14,4 11,2 30 16 44 24 NW 42 0
10.07.2020 22:00:00 10,0 9,0 10,2 14,1 14,5 11,2 29 16 55 30 NW 25 0
10.07.2020 21:00:00 11,2 9,1 11,3 15,0 14,4 11,2 42 23 59 32 NW 52 0
10.07.2020 20:00:00 14,4 9,3 14,4 15,9 14,4 11,2 39 21 60 33 WNW 74 2
10.07.2020 19:00:00 15,4 9,8 15,4 16,8 14,2 11,2 41 22 76 41 W 75 19
10.07.2020 18:00:00 16,8 10,2 18,4 17,2 14,0 11,2 45 25 62 34 W 70 4
10.07.2020 17:00:00 18,1 11,3 19,3 17,6 13,8 11,2 37 20 80 43 WNW 56 19
10.07.2020 16:00:00 19,6 7,8 20,3 17,9 13,6 11,2 55 30 83 45 W 57 35
10.07.2020 15:00:00 21,2 10,8 24,1 17,4 13,3 11,2 50 27 74 40 W 65 23
10.07.2020 14:00:00 19,8 12,5 21,1 17,1 13,1 11,3 37 20 59 32 WSW 69 13
10.07.2020 13:00:00 18,5 12,2 18,7 16,0 13,0 11,3 39 21 58 31 WSW 53 3
10.07.2020 12:00:00 18,0 11,5 18,3 15,7 12,8 11,3 40 22 57 31 SW 47 4
10.07.2020 11:00:00 17,3 11,4 17,8 14,8 12,8 11,3 37 20 63 34 SW 58 18
10.07.2020 10:00:00 16,9 10,9 17,3 13,8 12,7 11,3 37 20 57 31 SW 63 12
10.07.2020 09:00:00 15,8 10,4 15,5 12,7 12,8 11,3 39 21 53 28 SW 54 2
10.07.2020 08:00:00 15,3 9,9 14,4 12,3 12,8 11,3 41 22 51 28 SW 75 22
10.07.2020 07:00:00 14,8 9,6 13,8 11,8 12,9 11,3 38 21 42 23 SW 70 1
10.07.2020 06:00:00 14,9 9,9 13,5 11,8 13,0 11,3 35 19 41 22 WSW 71 0
10.07.2020 05:00:00 14,1 10,2 13,1 11,8 13,1 11,3 32 18 35 19 W 75 0
10.07.2020 04:00:00 13,7 10,2 12,4 12,1 13,2 11,3 30 16 40 22 W 63 0
10.07.2020 03:00:00 14,2 10,2 12,7 12,4 13,3 11,3 35 19 47 25 WSW 71 0
10.07.2020 02:00:00 14,8 10,3 13,5 12,8 13,4 11,3 39 21 49 27 WSW 75 0
10.07.2020 01:00:00 15,0 10,7 13,9 13,2 13,4 11,3 37 20 44 24 WSW 65 0
10.07.2020 00:00:00 15,4 10,9 14,7 13,5 13,5 11,3 37 20 48 26 WSW 75 0
09.07.2020 23:00:00 15,1 11,2 14,1 13,8 13,5 11,4 37 20 44 24 WSW 71 0
09.07.2020 22:00:00 15,1 11,5 14,6 14,5 13,4 11,4 35 19 42 23 W 66 0
09.07.2020 21:00:00 15,2 12,0 14,7 15,3 13,3 11,4 30 16 42 23 WSW 57 28
09.07.2020 20:00:00 15,9 12,8 15,8 16,1 13,1 11,4 27 15 44 24 WSW 63 19
09.07.2020 19:00:00 15,9 12,6 15,5 16,9 12,8 11,4 33 18 50 27 WSW 61 35
09.07.2020 18:00:00 16,2 13,1 17,1 16,8 12,6 11,4 36 20 52 28 W 51 28
09.07.2020 17:00:00 14,9 13,5 16,2 15,9 12,4 11,4 32 17 53 29 W 54 16
09.07.2020 16:00:00 14,2 13,3 16,4 14,7 12,3 11,4 38 20 55 30 W 37 14
09.07.2020 15:00:00 13,1 12,8 13,9 13,9 12,1 11,4 39 21 56 31 W 0,4 0
09.07.2020 14:00:00 12,9 12,6 14,1 13,6 12,0 11,4 40 22 57 31 WSW 0,2 0
09.07.2020 13:00:00 11,9 11,6 12,7 13,2 11,9 11,4 40 21 51 28 WSW 0,1 0
09.07.2020 12:00:00 11,5 11,2 12,6 12,8 11,8 11,4 36 19 49 26 WSW 0,1 1
09.07.2020 11:00:00 11,4 11,1 12,9 12,2 11,7 11,4 37 20 53 29 WSW 0,2 0
09.07.2020 10:00:00 10,6 10,3 11,2 11,4 11,7 11,4 36 19 48 26 W 0,2 0
09.07.2020 09:00:00 9,7 9,4 10,2 10,9 11,7 11,4 34 19 47 26 WSW 0,2 0
09.07.2020 08:00:00 9,1 8,8 9,6 10,5 11,8 11,4 31 17 41 22 WSW 0,2 0
09.07.2020 07:00:00 8,8 8,5 9,1 10,1 11,8 11,4 30 16 37 20 SW 0,1 0
09.07.2020 06:00:00 8,5 8,2 8,7 9,9 11,9 11,4 29 15 37 20 SW 0,1 0
09.07.2020 05:00:00 8,2 7,9 8,4 9,9 12,0 11,5 26 14 33 18 SW 0,1 0
09.07.2020 04:00:00 8,1 7,8 8,3 9,9 12,1 11,5 26 14 32 17 SSW 0,1 0
09.07.2020 03:00:00 7,9 7,5 7,9 9,9 12,2 11,5 22 12 27 14 SW 0,2 0
09.07.2020 02:00:00 7,7 7,3 7,7 10,1 12,3 11,5 19 10 22 12 WSW 1,4 0
09.07.2020 01:00:00 7,7 7,3 7,7 10,3 12,3 11,5 14 8 23 12 W 0,1 0
09.07.2020 00:00:00 7,9 7,6 8,1 10,5 12,4 11,5 20 11 24 13 W 0,1 0
08.07.2020 23:00:00 7,9 7,5 8,1 10,7 12,5 11,5 21 11 29 16 W 0,1 0
08.07.2020 22:00:00 8,2 7,9 8,4 11,0 12,5 11,5 20 11 28 15 WNW 0,1 0
08.07.2020 21:00:00 8,3 8,0 8,7 11,3 12,5 11,5 22 12 30 16 W 0,1 0
08.07.2020 20:00:00 8,4 8,1 9,0 11,5 12,6 11,5 24 13 34 19 W 0,1 0
08.07.2020 19:00:00 8,4 8,1 9,1 11,6 12,6 11,5 27 15 41 22 W 0,1 0
08.07.2020 18:00:00 8,4 8,1 9,1 11,7 12,6 11,5 31 17 40 22 W 0,1 0
08.07.2020 17:00:00 8,3 8,0 9,2 11,5 12,6 11,5 32 17 45 25 W 0,1 0
08.07.2020 16:00:00 7,9 7,6 8,5 11,2 12,6 11,5 34 18 50 27 W 0,1 0
08.07.2020 15:00:00 7,8 7,5 8,7 11,3 12,7 11,5 38 21 54 29 W 0,1 0
08.07.2020 14:00:00 7,6 7,2 8,2 11,6 12,7 11,5 41 22 65 35 W 0,1 0
08.07.2020 13:00:00 7,8 7,5 8,5 11,8 12,7 11,5 44 24 59 32 W 0,1 0
08.07.2020 12:00:00 7,8 7,2 8,7 11,9 12,7 11,5 35 19 53 28 W 3,5 0
08.07.2020 11:00:00 8,1 7,1 9,2 11,5 12,7 11,5 33 18 44 24 W 10 0
08.07.2020 10:00:00 7,8 6,0 8,3 11,1 12,8 11,5 34 18 44 24 W 29 0
08.07.2020 09:00:00 7,2 5,2 7,2 10,4 12,9 11,5 32 18 43 23 WSW 11 0
08.07.2020 08:00:00 7,4 4,5 7,3 10,0 13,0 11,5 33 18 42 23 W 58 0
08.07.2020 07:00:00 7,0 4,2 6,4 9,9 13,1 11,5 32 17 38 21 WSW 27 0
08.07.2020 06:00:00 6,7 4,4 6,2 9,9 13,3 11,5 29 16 33 18 W 22 0
08.07.2020 05:00:00 6,4 4,6 6,4 10,0 13,5 11,5 16 9 21 11 W 49 0
08.07.2020 04:00:00 6,2 4,4 6,1 10,0 13,7 11,5 16 9 21 11 WNW 56 0
08.07.2020 03:00:00 6,5 3,8 6,2 10,0 13,9 11,5 20 11 34 19 WNW 67 0
08.07.2020 02:00:00 7,4 2,8 6,6 10,3 14,1 11,5 29 16 41 22 W 75 0
08.07.2020 01:00:00 7,4 2,9 6,6 10,7 14,3 11,5 37 20 46 25 W 75 0
08.07.2020 00:00:00 7,6 2,6 6,4 11,4 14,5 11,5 39 21 44 24 W 75 0
07.07.2020 23:00:00 8,3 3,0 8,0 12,2 14,6 11,5 32 17 36 19 W 65 0
07.07.2020 22:00:00 7,7 3,7 6,4 13,1 14,7 11,5 23 13 26 14 W 61 0
07.07.2020 21:00:00 8,9 4,3 7,2 14,3 14,6 11,5 15 8 20 11 W 74 26
07.07.2020 20:00:00 9,6 3,9 9,4 15,5 14,5 11,5 17 9 34 19 W 66 6
07.07.2020 19:00:00 11,1 3,6 12,5 16,6 14,3 11,5 21 12 38 21 WNW 72 20
07.07.2020 18:00:00 12,6 2,8 17,4 17,1 14,1 11,5 31 17 42 23 W 70 42
07.07.2020 17:00:00 12,1 5,0 17,7 16,2 14,0 11,5 24 13 37 20 W 75 21
07.07.2020 16:00:00 10,9 3,7 14,6 15,7 13,8 11,5 21 11 36 19 WNW 72 9
07.07.2020 15:00:00 9,8 3,0 12,4 15,1 13,7 11,5 24 13 36 20 W 75 7
07.07.2020 14:00:00 9,3 4,0 12,2 14,6 13,6 11,5 22 12 31 17 WNW 59 0
07.07.2020 13:00:00 8,6 3,8 10,0 14,2 13,5 11,5 15 8 31 17 WNW 69 4
07.07.2020 12:00:00 9,1 5,7 12,4 13,7 13,5 11,5 15 8 29 15 WNW 59 13
07.07.2020 11:00:00 7,3 5,3 8,9 12,7 13,5 11,4 23 12 34 18 W 53 14
07.07.2020 10:00:00 5,5 5,0 6,7 11,4 13,6 11,4 24 13 31 17 WNW 0,4 2
07.07.2020 09:00:00 5,7 5,4 6,9 10,6 13,8 11,4 22 12 36 19 W 0,2 1
07.07.2020 08:00:00 5,0 4,7 5,8 9,9 14,0 11,4 25 14 40 22 NW 0,1 0
07.07.2020 07:00:00 4,7 4,4 5,2 9,8 14,2 11,4 27 15 41 22 WNW 0,1 0
07.07.2020 06:00:00 4,8 4,4 5,2 9,9 14,4 11,4 24 13 39 21 WNW 0,1 0

tt = temperature
td = dewpoint
tt 5cm = temperature 5cm
tt -5cm = temperature -5cm
tt -20cm = temperature -20cm
tt -100cm = temperature -100cm
ff = wind speed
fx = gusts
dd = wind direction
vv = visibility
sd = sunshine duration

Next stations